createdAt,value
2022-09-24T00:00:53.493Z,2.85
2022-09-24T00:01:56.499Z,3.53
2022-09-24T00:02:58.851Z,2.65
2022-09-24T00:04:05.750Z,3.17
2022-09-24T00:05:08.486Z,3.20
2022-09-24T00:06:12.334Z,2.83
2022-09-24T00:07:15.268Z,3.00
2022-09-24T00:08:18.394Z,3.30
2022-09-24T00:09:23.185Z,3.33
2022-09-24T00:10:26.484Z,3.17
2022-09-24T00:11:30.026Z,2.72
2022-09-24T00:12:32.157Z,3.35
2022-09-24T00:13:36.106Z,3.30
2022-09-24T00:14:37.999Z,2.85
2022-09-24T00:15:43.570Z,3.47
2022-09-24T00:16:47.007Z,3.15
2022-09-24T00:17:48.928Z,2.97
2022-09-24T00:18:51.992Z,3.38
2022-09-24T00:19:53.937Z,3.17
2022-09-24T00:20:57.157Z,2.80
2022-09-24T00:21:59.059Z,3.28
2022-09-24T00:23:02.530Z,3.30
2022-09-24T00:24:08.100Z,2.72
2022-09-24T00:25:28.601Z,3.10
2022-09-24T00:26:49.717Z,3.33
2022-09-24T00:27:51.689Z,3.10
2022-09-24T00:28:54.571Z,3.65
2022-09-24T00:29:56.814Z,2.88
2022-09-24T00:31:00.809Z,3.15
2022-09-24T00:32:03.911Z,3.20
2022-09-24T00:33:07.145Z,3.13
2022-09-24T00:34:09.247Z,2.88
2022-09-24T00:35:12.175Z,3.45
2022-09-24T00:36:14.857Z,3.38
2022-09-24T00:37:18.574Z,3.50
2022-09-24T00:38:20.470Z,3.22
2022-09-24T00:39:23.382Z,3.15
2022-09-24T00:40:28.221Z,3.63
2022-09-24T00:41:35.070Z,3.13
2022-09-24T00:42:36.987Z,3.35
2022-09-24T00:43:40.057Z,3.25
2022-09-24T00:45:05.261Z,3.30
2022-09-24T00:46:14.864Z,3.63
2022-09-24T00:47:27.581Z,3.53
2022-09-24T00:48:30.254Z,2.72
2022-09-24T00:49:33.195Z,3.10
2022-09-24T00:50:35.821Z,3.22
2022-09-24T00:51:39.335Z,3.20
2022-09-24T00:52:44.879Z,3.33
2022-09-24T00:53:50.766Z,3.13
2022-09-24T00:54:53.689Z,3.20
2022-09-24T00:55:57.763Z,3.15
2022-09-24T00:57:01.813Z,2.95
2022-09-24T00:58:08.208Z,3.05
2022-09-24T00:59:16.885Z,3.05
2022-09-24T01:00:20.281Z,3.05
2022-09-24T01:01:25.214Z,3.03
2022-09-24T01:02:28.488Z,3.20
2022-09-24T01:03:32.424Z,3.70
2022-09-24T01:04:35.318Z,2.88
2022-09-24T01:05:39.127Z,3.28
2022-09-24T01:06:42.110Z,3.10
2022-09-24T01:07:45.227Z,3.10
2022-09-24T01:08:48.462Z,2.95
2022-09-24T01:09:50.421Z,3.85
2022-09-24T01:11:08.379Z,3.78
2022-09-24T01:12:17.286Z,3.45
2022-09-24T01:13:43.430Z,3.10
2022-09-24T01:14:59.503Z,3.67
2022-09-24T01:16:07.614Z,3.45
2022-09-24T01:17:23.045Z,3.40
2022-09-24T01:18:33.149Z,3.10
2022-09-24T01:20:02.843Z,3.00
2022-09-24T01:21:28.529Z,3.38
2022-09-24T01:22:47.005Z,3.40
2022-09-24T01:24:06.900Z,3.05
2022-09-24T01:25:20.606Z,3.40
2022-09-24T01:26:47.887Z,2.95
2022-09-24T01:28:07.739Z,3.33
2022-09-24T01:29:46.025Z,2.97
2022-09-24T01:30:50.471Z,3.47
2022-09-24T01:32:02.045Z,3.30
2022-09-24T01:33:08.526Z,4.00
2022-09-24T01:34:14.930Z,3.60
2022-09-24T01:35:22.649Z,2.95
2022-09-24T01:36:26.887Z,3.13
2022-09-24T01:37:34.276Z,3.70
2022-09-24T01:38:40.774Z,3.60
2022-09-24T01:39:45.886Z,3.10
2022-09-24T01:40:49.568Z,3.20
2022-09-24T01:41:53.346Z,2.88
2022-09-24T01:42:57.215Z,3.40
2022-09-24T01:44:01.866Z,3.47
2022-09-24T01:45:06.595Z,3.10
2022-09-24T01:46:10.226Z,3.22
2022-09-24T01:47:18.624Z,3.30
2022-09-24T01:48:23.245Z,3.63
2022-09-24T01:49:26.211Z,3.28
2022-09-24T01:50:33.594Z,3.47
2022-09-24T01:51:42.083Z,3.20
2022-09-24T01:52:49.916Z,3.15
2022-09-24T01:53:57.162Z,3.35
2022-09-24T01:55:04.083Z,3.33
2022-09-24T01:56:11.037Z,4.10
2022-09-24T01:57:19.158Z,3.83
2022-09-24T01:58:27.905Z,3.88
2022-09-24T01:59:36.721Z,3.38
2022-09-24T02:00:45.672Z,3.90
2022-09-24T02:01:52.044Z,3.10
2022-09-24T02:03:00.063Z,3.45
2022-09-24T02:04:08.202Z,3.25
2022-09-24T02:05:15.916Z,2.85
2022-09-24T02:06:24.211Z,3.30
2022-09-24T02:07:33.406Z,3.53
2022-09-24T02:08:40.857Z,3.72
2022-09-24T02:09:44.058Z,3.63
2022-09-24T02:10:52.699Z,3.25
2022-09-24T02:11:56.760Z,2.70
2022-09-24T02:13:04.646Z,2.80
2022-09-24T02:14:10.925Z,4.03
2022-09-24T02:15:18.562Z,3.25
2022-09-24T02:16:26.329Z,3.60
2022-09-24T02:17:33.775Z,3.95
2022-09-24T02:18:39.535Z,3.38
2022-09-24T02:19:43.606Z,3.67
2022-09-24T02:20:47.346Z,3.38
2022-09-24T02:21:52.115Z,3.65
2022-09-24T02:22:57.089Z,4.25
2022-09-24T02:25:23.202Z,3.47
2022-09-24T02:26:25.226Z,3.10
2022-09-24T02:27:29.022Z,3.60
2022-09-24T02:28:33.004Z,3.10
2022-09-24T02:29:36.005Z,2.45
2022-09-24T02:30:41.987Z,3.72
2022-09-24T02:31:49.099Z,3.20
2022-09-24T02:32:53.294Z,3.30
2022-09-24T02:34:15.905Z,3.35
2022-09-24T02:35:19.407Z,3.70
2022-09-24T02:36:25.013Z,3.85
2022-09-24T02:37:27.951Z,3.20
2022-09-24T02:38:29.878Z,3.33
2022-09-24T02:39:32.986Z,3.42
2022-09-24T02:40:35.078Z,3.25
2022-09-24T02:41:38.637Z,3.25
2022-09-24T02:42:42.382Z,3.03
2022-09-24T02:43:45.365Z,3.30
2022-09-24T02:44:47.484Z,3.35
2022-09-24T02:45:50.411Z,3.50
2022-09-24T02:46:53.745Z,3.85
2022-09-24T02:47:57.358Z,3.40
2022-09-24T02:48:59.326Z,3.05
2022-09-24T02:50:02.608Z,3.47
2022-09-24T02:51:05.267Z,3.30
2022-09-24T02:52:08.248Z,3.63
2022-09-24T02:53:10.181Z,3.28
2022-09-24T02:54:13.118Z,4.20
2022-09-24T02:55:15.190Z,3.00
2022-09-24T02:56:18.125Z,3.58
2022-09-24T02:57:20.318Z,3.15
2022-09-24T02:58:23.298Z,3.20
2022-09-24T02:59:25.292Z,4.00
2022-09-24T03:00:28.886Z,3.28
2022-09-24T03:01:31.827Z,4.50
2022-09-24T03:02:36.186Z,3.65
2022-09-24T03:03:38.209Z,3.15
2022-09-24T03:04:41.225Z,2.97
2022-09-24T03:05:43.117Z,3.28
2022-09-24T03:06:46.057Z,3.78
2022-09-24T03:07:47.990Z,3.78
2022-09-24T03:08:50.889Z,3.22
2022-09-24T03:09:52.812Z,3.25
2022-09-24T03:10:56.586Z,4.07
2022-09-24T03:12:00.806Z,3.08
2022-09-24T03:13:03.751Z,3.35
2022-09-24T03:14:05.734Z,3.90
2022-09-24T03:15:09.266Z,3.50
2022-09-24T03:16:11.323Z,3.53
2022-09-24T03:17:14.241Z,3.90
2022-09-24T03:18:17.540Z,3.20
2022-09-24T03:19:20.444Z,3.55
2022-09-24T03:20:24.142Z,3.70
2022-09-24T03:21:27.129Z,3.70
2022-09-24T03:22:29.051Z,3.55
2022-09-24T03:23:32.303Z,3.58
2022-09-24T03:24:34.206Z,3.35
2022-09-24T03:25:37.122Z,3.70
2022-09-24T03:26:39.974Z,3.95
2022-09-24T03:27:42.878Z,3.83
2022-09-24T03:28:45.134Z,3.25
2022-09-24T03:30:01.936Z,3.90
2022-09-24T03:31:05.378Z,3.58
2022-09-24T03:32:07.446Z,3.05
2022-09-24T03:33:09.374Z,3.97
2022-09-24T03:34:13.726Z,2.97
2022-09-24T03:35:15.736Z,3.95
2022-09-24T03:36:20.187Z,3.30
2022-09-24T03:37:22.137Z,4.03
2022-09-24T03:38:25.110Z,3.95
2022-09-24T03:39:27.001Z,3.45
2022-09-24T03:40:30.024Z,4.10
2022-09-24T03:41:33.005Z,3.67
2022-09-24T03:42:34.959Z,3.70
2022-09-24T03:43:38.390Z,4.63
2022-09-24T03:44:40.298Z,3.42
2022-09-24T03:45:43.196Z,3.47
2022-09-24T03:46:45.173Z,3.50
2022-09-24T03:47:48.293Z,3.72
2022-09-24T03:48:51.216Z,3.60
2022-09-24T03:49:54.677Z,3.90
2022-09-24T03:50:58.037Z,4.00
2022-09-24T03:51:59.954Z,3.25
2022-09-24T03:53:02.893Z,3.58
2022-09-24T03:54:06.030Z,4.15
2022-09-24T03:55:09.032Z,3.38
2022-09-24T03:56:12.782Z,4.20
2022-09-24T03:57:14.950Z,3.63
2022-09-24T03:58:18.015Z,4.00
2022-09-24T03:59:19.918Z,3.85
2022-09-24T04:00:23.572Z,3.33
2022-09-24T04:01:25.537Z,3.42
2022-09-24T04:02:28.577Z,3.50
2022-09-24T04:03:30.623Z,3.38
2022-09-24T04:04:33.522Z,4.13
2022-09-24T04:05:37.438Z,4.10
2022-09-24T04:06:40.337Z,3.58
2022-09-24T04:07:43.055Z,3.25
2022-09-24T04:08:46.017Z,3.55
2022-09-24T04:09:48.476Z,3.85
2022-09-24T04:10:52.301Z,4.10
2022-09-24T04:11:54.259Z,3.65
2022-09-24T04:12:57.206Z,3.20
2022-09-24T04:14:00.125Z,3.80
2022-09-24T04:15:02.930Z,3.40
2022-09-24T04:16:06.407Z,3.75
2022-09-24T04:17:09.732Z,3.60
2022-09-24T04:18:13.039Z,3.33
2022-09-24T04:19:16.015Z,3.60
2022-09-24T04:20:22.772Z,3.58
2022-09-24T04:21:26.247Z,4.05
2022-09-24T04:22:29.559Z,3.42
2022-09-24T04:23:32.514Z,3.60
2022-09-24T04:24:34.417Z,3.80
2022-09-24T04:25:37.598Z,3.90
2022-09-24T04:26:39.709Z,3.55
2022-09-24T04:27:42.938Z,3.92
2022-09-24T04:28:44.888Z,3.80
2022-09-24T04:29:47.789Z,4.20
2022-09-24T04:30:49.871Z,3.60
2022-09-24T04:31:52.917Z,3.90
2022-09-24T04:32:55.029Z,3.33
2022-09-24T04:33:57.930Z,3.70
2022-09-24T04:35:03.024Z,3.65
2022-09-24T04:36:08.410Z,4.20
2022-09-24T04:37:11.864Z,3.42
2022-09-24T04:38:15.162Z,3.67
2022-09-24T04:39:17.074Z,3.80
2022-09-24T04:40:20.494Z,3.63
2022-09-24T04:41:22.658Z,3.50
2022-09-24T04:42:26.331Z,3.75
2022-09-24T04:43:28.250Z,2.92
2022-09-24T04:44:31.148Z,4.30
2022-09-24T04:45:33.562Z,3.95
2022-09-24T04:46:36.516Z,3.50
2022-09-24T04:47:40.585Z,3.72
2022-09-24T04:48:43.517Z,3.67
2022-09-24T04:49:45.812Z,4.00
2022-09-24T04:50:48.794Z,3.53
2022-09-24T04:51:50.702Z,4.53
2022-09-24T04:52:55.138Z,3.72
2022-09-24T04:53:57.084Z,3.78
2022-09-24T04:55:00.529Z,3.75
2022-09-24T04:56:03.577Z,4.10
2022-09-24T04:57:06.474Z,4.00
2022-09-24T04:58:09.539Z,4.03
2022-09-24T04:59:11.545Z,4.00
2022-09-24T05:00:17.688Z,3.40
2022-09-24T05:01:20.446Z,3.50
2022-09-24T05:02:24.180Z,3.88
2022-09-24T05:03:26.397Z,4.50
2022-09-24T05:04:31.169Z,3.58
2022-09-24T05:05:34.283Z,4.03
2022-09-24T05:06:37.255Z,3.67
2022-09-24T05:07:39.784Z,3.17
2022-09-24T05:08:44.051Z,3.63
2022-09-24T05:09:45.953Z,3.80
2022-09-24T05:10:48.928Z,3.15
2022-09-24T05:11:51.389Z,3.30
2022-09-24T05:12:54.654Z,3.83
2022-09-24T05:13:56.606Z,3.92
2022-09-24T05:14:59.491Z,3.00
2022-09-24T05:16:01.911Z,4.10
2022-09-24T05:17:05.211Z,3.65
2022-09-24T05:18:07.135Z,3.50
2022-09-24T05:19:10.095Z,3.40
2022-09-24T05:20:12.514Z,3.30
2022-09-24T05:21:15.622Z,3.25
2022-09-24T05:22:17.561Z,3.83
2022-09-24T05:23:20.490Z,3.70
2022-09-24T05:24:23.848Z,3.80
2022-09-24T05:25:26.771Z,3.50
2022-09-24T05:26:47.242Z,4.93
2022-09-24T05:27:50.863Z,4.25
2022-09-24T05:28:53.104Z,3.95
2022-09-24T05:29:56.078Z,3.88
2022-09-24T05:30:58.380Z,3.75
2022-09-24T05:32:05.571Z,3.80
2022-09-24T05:33:07.894Z,4.85
2022-09-24T05:34:10.861Z,4.38
2022-09-24T05:35:13.823Z,3.75
2022-09-24T05:36:16.047Z,3.80
2022-09-24T05:37:18.983Z,4.00
2022-09-24T05:38:20.903Z,4.78
2022-09-24T05:39:27.954Z,4.55
2022-09-24T05:40:50.463Z,4.65
2022-09-24T05:41:53.482Z,4.25
2022-09-24T05:43:00.425Z,4.93
2022-09-24T05:44:03.785Z,5.00
2022-09-24T05:45:06.398Z,4.07
2022-09-24T05:46:09.437Z,4.68
2022-09-24T05:47:11.495Z,4.82
2022-09-24T05:48:14.420Z,4.88
2022-09-24T05:49:18.402Z,4.50
2022-09-24T05:50:22.978Z,4.30
2022-09-24T05:51:25.010Z,4.60
2022-09-24T05:52:27.948Z,5.47
2022-09-24T05:53:29.895Z,5.38
2022-09-24T05:54:34.156Z,4.68
2022-09-24T05:55:36.654Z,4.70
2022-09-24T05:56:39.818Z,4.72
2022-09-24T05:57:41.718Z,4.28
2022-09-24T05:58:44.842Z,4.80
2022-09-24T05:59:46.775Z,4.82
2022-09-24T06:00:49.872Z,4.70
2022-09-24T06:01:52.328Z,5.45
2022-09-24T06:02:55.392Z,4.13
2022-09-24T06:03:57.721Z,4.70
2022-09-24T06:05:00.629Z,3.92
2022-09-24T06:06:02.642Z,4.75
2022-09-24T06:07:05.546Z,4.78
2022-09-24T06:08:08.619Z,4.13
2022-09-24T06:09:11.734Z,5.00
2022-09-24T06:10:15.170Z,4.60
2022-09-24T06:11:18.366Z,4.93
2022-09-24T06:12:22.369Z,3.90
2022-09-24T06:13:25.375Z,3.90
2022-09-24T06:14:28.361Z,4.72
2022-09-24T06:15:31.298Z,5.43
2022-09-24T06:16:33.824Z,4.80
2022-09-24T06:17:36.781Z,5.30
2022-09-24T06:18:40.110Z,5.25
2022-09-24T06:19:45.244Z,5.65
2022-09-24T06:20:48.150Z,5.55
2022-09-24T06:21:50.074Z,6.43
2022-09-24T06:22:57.379Z,6.32
2022-09-24T06:23:59.325Z,6.55
2022-09-24T06:25:02.260Z,6.50
2022-09-24T06:26:07.742Z,7.47
2022-09-24T06:27:10.657Z,7.18
2022-09-24T06:28:12.567Z,5.50
2022-09-24T06:29:15.997Z,5.10
2022-09-24T06:30:17.906Z,5.18
2022-09-24T06:31:21.249Z,4.95
2022-09-24T06:32:24.185Z,4.75
2022-09-24T06:33:27.353Z,4.68
2022-09-24T06:34:29.286Z,4.90
2022-09-24T06:35:32.301Z,4.25
2022-09-24T06:36:35.657Z,4.28
2022-09-24T06:37:37.619Z,4.45
2022-09-24T06:38:41.173Z,4.15
2022-09-24T06:39:43.116Z,4.75
2022-09-24T06:40:48.343Z,4.47
2022-09-24T06:41:53.025Z,4.50
2022-09-24T06:42:55.001Z,4.80
2022-09-24T06:43:57.904Z,4.30
2022-09-24T06:44:59.829Z,4.90
2022-09-24T06:46:03.602Z,4.78
2022-09-24T06:47:05.650Z,4.28
2022-09-24T06:48:09.279Z,4.80
2022-09-24T06:49:11.383Z,4.75
2022-09-24T06:50:14.478Z,3.72
2022-09-24T06:51:17.618Z,5.03
2022-09-24T06:52:20.528Z,4.88
2022-09-24T06:53:23.751Z,4.93
2022-09-24T06:54:25.925Z,4.00
2022-09-24T06:55:28.836Z,4.38
2022-09-24T06:56:31.070Z,4.25
2022-09-24T06:57:35.322Z,4.50
2022-09-24T06:58:38.238Z,4.40
2022-09-24T06:59:40.155Z,4.40
2022-09-24T07:00:44.843Z,5.32
2022-09-24T07:01:46.905Z,4.55
2022-09-24T07:02:52.960Z,4.95
2022-09-24T07:03:54.922Z,4.85
2022-09-24T07:04:57.861Z,4.80
2022-09-24T07:06:02.676Z,4.43
2022-09-24T07:07:24.093Z,4.30
2022-09-24T07:08:27.022Z,5.53
2022-09-24T07:09:28.962Z,4.25
2022-09-24T07:10:32.139Z,4.30
2022-09-24T07:11:34.049Z,5.05
2022-09-24T07:12:38.386Z,5.20
2022-09-24T07:13:40.376Z,5.32
2022-09-24T07:14:43.306Z,5.55
2022-09-24T07:15:45.815Z,5.65
2022-09-24T07:16:48.924Z,5.15
2022-09-24T07:17:56.070Z,5.55
2022-09-24T07:18:59.284Z,4.82
2022-09-24T07:20:01.889Z,4.88
2022-09-24T07:21:04.868Z,5.07
2022-09-24T07:22:06.820Z,5.38
2022-09-24T07:23:11.225Z,5.22
2022-09-24T07:24:13.165Z,5.38
2022-09-24T07:25:16.222Z,5.32
2022-09-24T07:26:18.125Z,5.75
2022-09-24T07:27:21.299Z,5.40
2022-09-24T07:28:24.839Z,4.90
2022-09-24T07:29:27.859Z,5.47
2022-09-24T07:30:30.796Z,5.20
2022-09-24T07:31:33.595Z,5.50
2022-09-24T07:32:36.936Z,5.40
2022-09-24T07:33:38.917Z,5.10
2022-09-24T07:34:42.223Z,5.60
2022-09-24T07:35:44.117Z,5.75
2022-09-24T07:36:47.087Z,6.05
2022-09-24T07:37:49.076Z,5.88
2022-09-24T07:38:52.143Z,5.68
2022-09-24T07:39:54.053Z,5.70
2022-09-24T07:40:59.321Z,5.32
2022-09-24T07:42:01.926Z,5.45
2022-09-24T07:43:04.880Z,4.97
2022-09-24T07:44:08.394Z,5.70
2022-09-24T07:45:12.001Z,5.93
2022-09-24T07:46:14.034Z,5.18
2022-09-24T07:47:17.015Z,5.40
2022-09-24T07:48:19.128Z,5.80
2022-09-24T07:49:23.094Z,5.10
2022-09-24T07:50:25.250Z,4.32
2022-09-24T07:51:29.290Z,5.50
2022-09-24T07:52:31.237Z,6.20
2022-09-24T07:53:34.120Z,4.95
2022-09-24T07:54:36.082Z,5.63
2022-09-24T07:55:40.471Z,5.47
2022-09-24T07:56:42.439Z,5.95
2022-09-24T07:57:48.494Z,6.35
2022-09-24T07:58:51.967Z,5.80
2022-09-24T07:59:55.239Z,5.28
2022-09-24T08:00:59.703Z,5.55
2022-09-24T08:02:01.753Z,4.93
2022-09-24T08:03:05.986Z,4.85
2022-09-24T08:04:08.108Z,5.15
2022-09-24T08:05:11.787Z,6.10
2022-09-24T08:06:13.902Z,6.18
2022-09-24T08:07:16.782Z,6.13
2022-09-24T08:08:20.722Z,6.13
2022-09-24T08:09:23.862Z,5.30
2022-09-24T08:10:27.202Z,6.68
2022-09-24T08:11:30.682Z,6.30
2022-09-24T08:12:32.672Z,5.65
2022-09-24T08:13:36.106Z,5.75
2022-09-24T08:14:38.030Z,5.30
2022-09-24T08:15:42.508Z,6.32
2022-09-24T08:16:44.474Z,5.70
2022-09-24T08:17:47.367Z,5.65
2022-09-24T08:18:49.321Z,5.60
2022-09-24T08:19:53.525Z,6.15
2022-09-24T08:20:55.474Z,5.43
2022-09-24T08:21:58.974Z,5.82
2022-09-24T08:23:03.140Z,7.70
2022-09-24T08:24:06.272Z,8.68
2022-09-24T08:25:09.589Z,7.97
2022-09-24T08:26:12.505Z,6.38
2022-09-24T08:27:17.419Z,5.90
2022-09-24T08:28:19.804Z,7.10
2022-09-24T08:29:22.717Z,7.32
2022-09-24T08:30:24.930Z,5.22
2022-09-24T08:31:30.527Z,5.30
2022-09-24T08:32:32.791Z,6.30
2022-09-24T08:33:36.731Z,6.78
2022-09-24T08:34:40.536Z,6.55
2022-09-24T08:35:43.469Z,6.63
2022-09-24T08:36:45.374Z,5.60
2022-09-24T08:37:48.307Z,5.88
2022-09-24T08:38:54.833Z,6.15
2022-09-24T08:39:57.829Z,5.95
2022-09-24T08:41:17.180Z,5.63
2022-09-24T08:42:30.775Z,6.07
2022-09-24T08:43:46.132Z,6.00
2022-09-24T08:45:08.873Z,6.45
2022-09-24T08:46:35.301Z,5.85
2022-09-24T08:47:45.719Z,5.93
2022-09-24T08:48:53.541Z,6.70
2022-09-24T08:50:07.110Z,6.35
2022-09-24T08:51:17.255Z,7.05
2022-09-24T08:52:29.392Z,5.97
2022-09-24T08:53:45.383Z,5.80
2022-09-24T08:54:48.873Z,6.57
2022-09-24T08:55:55.289Z,6.45
2022-09-24T08:56:58.690Z,21.45
2022-09-24T08:58:19.611Z,14.18
2022-09-24T08:59:28.568Z,10.18
2022-09-24T09:00:32.682Z,11.00
2022-09-24T09:01:45.638Z,10.55
2022-09-24T09:02:58.444Z,9.10
2022-09-24T09:04:14.336Z,6.40
2022-09-24T09:05:27.375Z,6.95
2022-09-24T09:06:54.553Z,6.28
2022-09-24T09:08:01.943Z,6.78
2022-09-24T09:09:12.245Z,6.43
2022-09-24T09:10:18.038Z,6.75
2022-09-24T09:11:24.891Z,5.90
2022-09-24T09:12:31.368Z,6.43
2022-09-24T09:13:38.814Z,6.25
2022-09-24T09:14:46.308Z,6.47
2022-09-24T09:15:54.113Z,6.72
2022-09-24T09:17:01.465Z,6.97
2022-09-24T09:18:13.266Z,5.68
2022-09-24T09:19:18.536Z,6.68
2022-09-24T09:20:26.346Z,7.13
2022-09-24T09:23:14.526Z,5.93
2022-09-24T09:24:18.988Z,5.78
2022-09-24T09:25:25.446Z,5.60
2022-09-24T09:26:27.406Z,5.90
2022-09-24T09:27:33.320Z,7.22
2022-09-24T09:28:35.466Z,6.20
2022-09-24T09:29:38.397Z,6.90
2022-09-24T09:30:52.907Z,6.00
2022-09-24T09:32:06.354Z,6.20
2022-09-24T09:33:23.859Z,6.28
2022-09-24T09:34:50.323Z,6.68
2022-09-24T09:36:01.751Z,6.25
2022-09-24T09:37:14.790Z,6.57
2022-09-24T09:38:23.551Z,6.35
2022-09-24T09:39:37.284Z,6.40
2022-09-24T09:40:45.582Z,6.05
2022-09-24T09:41:54.185Z,7.53
2022-09-24T09:43:02.879Z,7.53
2022-09-24T09:44:13.786Z,7.15
2022-09-24T09:45:32.419Z,6.95
2022-09-24T09:46:41.802Z,6.20
2022-09-24T09:47:48.610Z,6.63
2022-09-24T09:48:57.391Z,6.50
2022-09-24T09:50:05.826Z,6.38
2022-09-24T09:51:22.357Z,6.95
2022-09-24T09:52:29.318Z,6.28
2022-09-24T09:53:32.515Z,7.28
2022-09-24T09:54:38.014Z,6.72
2022-09-24T09:55:40.941Z,6.43
2022-09-24T09:56:45.652Z,6.00
2022-09-24T09:57:48.863Z,6.47
2022-09-24T09:58:55.714Z,6.07
2022-09-24T09:59:58.731Z,6.10
2022-09-24T10:01:05.993Z,5.88
2022-09-24T10:02:13.352Z,7.03
2022-09-24T10:03:24.976Z,6.10
2022-09-24T10:04:39.544Z,6.20
2022-09-24T10:05:42.468Z,7.28
2022-09-24T10:06:44.450Z,6.80
2022-09-24T10:07:47.553Z,6.20
2022-09-24T10:08:49.583Z,6.30
2022-09-24T10:10:04.212Z,6.20
2022-09-24T10:11:07.638Z,6.55
2022-09-24T10:12:17.020Z,6.28
2022-09-24T10:13:19.910Z,6.22
2022-09-24T10:14:21.860Z,6.47
2022-09-24T10:15:25.778Z,6.57
2022-09-24T10:16:27.862Z,6.57
2022-09-24T10:17:35.955Z,7.00
2022-09-24T10:18:42.935Z,6.88
2022-09-24T10:19:50.672Z,6.95
2022-09-24T10:20:54.047Z,6.57
2022-09-24T10:21:57.430Z,5.82
2022-09-24T10:23:03.193Z,5.53
2022-09-24T10:24:11.753Z,6.45
2022-09-24T10:25:20.030Z,6.72
2022-09-24T10:26:22.065Z,5.80
2022-09-24T10:27:31.717Z,6.25
2022-09-24T10:28:53.633Z,7.10
2022-09-24T10:30:15.135Z,7.32
2022-09-24T10:31:21.235Z,6.35
2022-09-24T10:32:25.159Z,6.30
2022-09-24T10:33:28.893Z,6.45
2022-09-24T10:34:31.472Z,7.10
2022-09-24T10:35:38.639Z,6.57
2022-09-24T10:36:51.748Z,6.30
2022-09-24T10:37:56.259Z,7.20
2022-09-24T10:39:11.557Z,6.55
2022-09-24T10:40:16.322Z,6.80
2022-09-24T10:41:26.989Z,7.65
2022-09-24T10:42:31.612Z,5.97
2022-09-24T10:43:35.416Z,6.00
2022-09-24T10:44:37.703Z,6.75
2022-09-24T10:45:56.442Z,6.70
2022-09-24T10:47:19.113Z,6.00
2022-09-24T10:48:27.174Z,7.63
2022-09-24T10:49:41.645Z,6.75
2022-09-24T10:50:54.334Z,7.63
2022-09-24T10:52:03.799Z,6.90
2022-09-24T10:53:14.400Z,6.68
2022-09-24T10:54:35.859Z,6.45
2022-09-24T10:55:47.275Z,6.38
2022-09-24T10:56:53.586Z,6.38
2022-09-24T10:58:04.433Z,6.65
2022-09-24T10:59:33.609Z,6.05
2022-09-24T11:00:41.042Z,6.45
2022-09-24T11:01:48.922Z,5.90
2022-09-24T11:03:24.382Z,6.43
2022-09-24T11:04:39.918Z,6.70
2022-09-24T11:05:52.694Z,6.35
2022-09-24T11:07:30.270Z,6.70
2022-09-24T11:09:02.637Z,5.88
2022-09-24T11:10:17.845Z,6.78
2022-09-24T11:11:31.246Z,7.00
2022-09-24T11:12:41.083Z,5.90
2022-09-24T11:13:55.821Z,6.10
2022-09-24T11:15:20.052Z,6.10
2022-09-24T11:16:42.750Z,7.10
2022-09-24T11:17:56.278Z,6.90
2022-09-24T11:19:03.298Z,7.00
2022-09-24T11:20:24.186Z,7.20
2022-09-24T11:21:41.181Z,8.00
2022-09-24T11:22:58.096Z,7.82
2022-09-24T11:24:17.571Z,8.50
2022-09-24T11:25:31.858Z,7.13
2022-09-24T11:26:49.512Z,7.35
2022-09-24T11:27:58.491Z,7.03
2022-09-24T11:29:37.294Z,6.38
2022-09-24T11:30:51.769Z,7.20
2022-09-24T11:32:06.386Z,8.15
2022-09-24T11:33:26.238Z,7.43
2022-09-24T11:34:43.142Z,7.50
2022-09-24T11:35:59.199Z,7.90
2022-09-24T11:37:17.038Z,7.28
2022-09-24T11:38:32.647Z,7.32
2022-09-24T11:39:51.969Z,9.18
2022-09-24T11:41:12.981Z,7.57
2022-09-24T11:42:22.609Z,8.23
2022-09-24T11:43:41.359Z,8.25
2022-09-24T11:45:08.379Z,7.97
2022-09-24T11:46:27.963Z,8.70
2022-09-24T11:47:46.721Z,8.20
2022-09-24T11:49:22.697Z,7.35
2022-09-24T11:50:36.688Z,7.25
2022-09-24T11:51:53.439Z,8.75
2022-09-24T11:53:02.796Z,8.93
2022-09-24T11:54:27.180Z,8.43
2022-09-24T11:55:34.742Z,8.75
2022-09-24T11:56:42.132Z,10.52
2022-09-24T11:57:49.753Z,8.80
2022-09-24T11:59:00.194Z,8.88
2022-09-24T12:00:07.463Z,9.40
2022-09-24T12:01:14.655Z,9.65
2022-09-24T12:03:58.304Z,9.45
2022-09-24T12:05:06.854Z,9.80
2022-09-24T12:06:14.445Z,10.80
2022-09-24T12:07:23.486Z,9.25
2022-09-24T12:08:31.037Z,9.15
2022-09-24T12:09:37.376Z,10.98
2022-09-24T12:10:46.078Z,9.70
2022-09-24T12:11:54.419Z,11.38
2022-09-24T12:13:04.479Z,9.57
2022-09-24T12:14:13.206Z,10.25
2022-09-24T12:15:20.575Z,10.98
2022-09-24T12:16:26.817Z,10.43
2022-09-24T12:17:37.275Z,10.40
2022-09-24T12:18:45.022Z,10.15
2022-09-24T12:19:53.915Z,9.95
2022-09-24T12:21:01.478Z,11.43
2022-09-24T12:22:05.822Z,12.00
2022-09-24T12:23:13.291Z,11.13
2022-09-24T12:24:22.266Z,10.60
2022-09-24T12:25:26.644Z,10.80
2022-09-24T12:26:31.201Z,10.45
2022-09-24T12:27:35.119Z,11.80
2022-09-24T12:29:00.854Z,11.50
2022-09-24T12:30:34.310Z,11.00
2022-09-24T12:32:04.093Z,11.30
2022-09-24T12:33:15.494Z,11.07
2022-09-24T12:34:26.225Z,11.00
2022-09-24T12:35:40.429Z,10.00
2022-09-24T12:36:57.542Z,10.27
2022-09-24T12:38:04.378Z,11.00
2022-09-24T12:39:10.659Z,11.48
2022-09-24T12:40:32.866Z,10.02
2022-09-24T12:41:37.754Z,10.73
2022-09-24T12:42:44.163Z,11.23
2022-09-24T12:43:50.684Z,11.10
2022-09-24T12:44:56.385Z,11.63
2022-09-24T12:46:02.328Z,11.55
2022-09-24T12:47:07.166Z,10.70
2022-09-24T12:48:15.822Z,10.10
2022-09-24T12:49:26.724Z,11.52
2022-09-24T12:50:31.589Z,12.75
2022-09-24T12:51:37.983Z,10.63
2022-09-24T12:52:41.291Z,10.68
2022-09-24T12:53:55.738Z,11.05
2022-09-24T12:55:00.964Z,10.15
2022-09-24T12:56:06.134Z,10.85
2022-09-24T12:57:11.372Z,9.80
2022-09-24T12:58:29.706Z,10.60
2022-09-24T12:59:32.628Z,11.70
2022-09-24T13:00:39.095Z,9.65
2022-09-24T13:01:42.086Z,10.10
2022-09-24T13:02:46.155Z,11.30
2022-09-24T13:04:04.082Z,10.43
2022-09-24T13:05:19.652Z,10.27
2022-09-24T13:06:31.124Z,10.05
2022-09-24T13:07:36.502Z,10.80
2022-09-24T13:08:40.045Z,12.48
2022-09-24T13:09:43.669Z,10.75
2022-09-24T13:10:54.814Z,14.52
2022-09-24T13:12:06.384Z,13.38
2022-09-24T13:13:23.626Z,13.50
2022-09-24T13:14:29.957Z,11.40
2022-09-24T13:15:34.694Z,11.77
2022-09-24T13:16:43.081Z,11.55
2022-09-24T13:17:45.056Z,11.13
2022-09-24T13:18:53.793Z,11.07
2022-09-24T13:19:59.850Z,10.75
2022-09-24T13:21:05.539Z,12.55
2022-09-24T13:22:21.214Z,12.00
2022-09-24T13:23:33.644Z,10.10
2022-09-24T13:24:48.505Z,11.23
2022-09-24T13:25:55.849Z,10.88
2022-09-24T13:27:25.230Z,11.85
2022-09-24T13:28:38.201Z,11.13
2022-09-24T13:29:42.931Z,11.57
2022-09-24T13:30:48.629Z,11.60
2022-09-24T13:31:57.158Z,13.10
2022-09-24T13:33:02.579Z,13.05
2022-09-24T13:34:15.393Z,12.65
2022-09-24T13:35:23.647Z,11.90
2022-09-24T13:36:31.238Z,13.23
2022-09-24T13:37:39.338Z,11.18
2022-09-24T13:38:49.566Z,12.48
2022-09-24T13:39:57.294Z,12.45
2022-09-24T13:41:08.106Z,13.40
2022-09-24T13:42:20.964Z,13.35
2022-09-24T13:43:45.467Z,12.50
2022-09-24T13:44:52.951Z,12.38
2022-09-24T13:45:54.968Z,13.95
2022-09-24T13:47:01.270Z,14.10
2022-09-24T13:48:05.893Z,13.75
2022-09-24T13:49:13.676Z,13.35
2022-09-24T13:50:18.954Z,13.32
2022-09-24T13:51:27.621Z,14.30
2022-09-24T13:52:35.429Z,14.00
2022-09-24T13:53:40.086Z,16.48
2022-09-24T13:54:52.072Z,15.13
2022-09-24T13:55:57.203Z,16.20
2022-09-24T13:57:12.334Z,16.00
2022-09-24T13:58:28.250Z,17.50
2022-09-24T13:59:31.238Z,15.45
2022-09-24T14:00:43.142Z,14.70
2022-09-24T14:01:47.068Z,13.68
2022-09-24T14:03:00.649Z,14.25
2022-09-24T14:04:06.382Z,13.63
2022-09-24T14:05:18.125Z,13.60
2022-09-24T14:06:31.626Z,13.00
2022-09-24T14:07:33.582Z,14.13
2022-09-24T14:08:38.556Z,13.02
2022-09-24T14:09:40.482Z,12.82
2022-09-24T14:10:44.216Z,12.50
2022-09-24T14:11:50.956Z,12.32
2022-09-24T14:13:08.828Z,12.50
2022-09-24T14:14:19.802Z,13.70
2022-09-24T14:15:21.714Z,12.02
2022-09-24T14:16:25.976Z,13.00
2022-09-24T14:17:27.988Z,12.88
2022-09-24T14:18:30.987Z,13.15
2022-09-24T14:19:34.518Z,12.90
2022-09-24T14:20:37.705Z,13.40
2022-09-24T14:21:44.197Z,12.18
2022-09-24T14:22:47.782Z,13.77
2022-09-24T14:23:56.987Z,12.77
2022-09-24T14:25:03.459Z,12.60
2022-09-24T14:26:06.350Z,13.45
2022-09-24T14:27:15.566Z,14.20
2022-09-24T14:28:18.828Z,14.20
2022-09-24T14:29:26.463Z,14.90
2022-09-24T14:30:31.516Z,16.02
2022-09-24T14:31:42.522Z,14.82
2022-09-24T14:32:44.839Z,14.82
2022-09-24T14:33:47.979Z,16.13
2022-09-24T14:34:53.243Z,16.45
2022-09-24T14:35:58.419Z,14.23
2022-09-24T14:37:09.275Z,14.73
2022-09-24T14:38:16.069Z,15.20
2022-09-24T14:39:25.198Z,14.05
2022-09-24T14:40:29.798Z,14.45
2022-09-24T14:41:34.479Z,14.15
2022-09-24T14:42:43.857Z,13.90
2022-09-24T14:43:48.784Z,13.30
2022-09-24T14:44:54.626Z,12.70
2022-09-24T14:46:02.505Z,12.52